Time;durP1;ratioP1;P1;durP2;ratioP2;P2;SDS_P1;SDS_P2;PMS_P1;PMS_P2;Temp;Humidity;BMP_temperature;BMP_pressure;BME280_temperature;BME280_humidity;BME280_pressure;Samples;Min_cycle;Max_cycle;Signal;HPM_P1;HPM_P2
2023/06/23 00:01:23;;;;;;;61.37;27.27;;;16.60;99.90;;;;;;5199605;28;20430;-45
2023/06/23 00:03:54;;;;;;;58.13;31.40;;;16.60;99.90;;;;;;5199139;28;20435;-45
2023/06/23 00:06:25;;;;;;;64.33;33.37;;;16.70;99.90;;;;;;5186344;28;20229;-45
2023/06/23 00:08:56;;;;;;;54.30;31.30;;;16.60;99.90;;;;;;5199745;28;20449;-46
2023/06/23 00:11:28;;;;;;;68.73;32.07;;;16.70;99.90;;;;;;5188784;28;20430;-46
2023/06/23 00:13:58;;;;;;;60.10;31.77;;;16.70;99.90;;;;;;5173591;28;20211;-45
2023/06/23 00:16:29;;;;;;;47.50;28.20;;;16.70;99.90;;;;;;5205104;28;20438;-44
2023/06/23 00:19:00;;;;;;;55.47;29.77;;;16.70;99.90;;;;;;5205894;28;20203;-45
2023/06/23 00:21:31;;;;;;;35.67;23.93;;;16.70;99.90;;;;;;5180569;28;20532;-44
2023/06/23 00:24:02;;;;;;;42.60;26.23;;;16.70;99.90;;;;;;5204733;28;20274;-44
2023/06/23 00:26:34;;;;;;;52.13;28.90;;;16.70;99.90;;;;;;5182368;28;20179;-44
2023/06/23 00:29:05;;;;;;;65.33;32.37;;;16.70;99.90;;;;;;5197106;28;20704;-46
2023/06/23 00:31:35;;;;;;;58.63;29.93;;;16.60;99.90;;;;;;5200038;28;20443;-44
2023/06/23 00:34:06;;;;;;;49.93;27.00;;;16.70;99.90;;;;;;5198505;28;21016;-45
2023/06/23 00:36:37;;;;;;;37.77;23.60;;;16.70;99.90;;;;;;5189123;28;20218;-44
2023/06/23 00:39:08;;;;;;;45.87;26.93;;;16.60;99.90;;;;;;5188194;28;20192;-45
2023/06/23 00:41:39;;;;;;;30.33;19.23;;;16.70;99.90;;;;;;5200678;28;20179;-44
2023/06/23 00:44:10;;;;;;;53.33;25.80;;;16.60;99.90;;;;;;5188139;28;20869;-44
2023/06/23 00:46:43;;;;;;;46.70;23.53;;;16.60;99.90;;;;;;5200821;28;20179;-45
2023/06/23 00:49:15;;;;;;;29.97;22.20;;;16.60;99.90;;;;;;5195978;28;20439;-44
2023/06/23 00:51:46;;;;;;;58.37;26.80;;;16.70;99.90;;;;;;5198207;28;20415;-45
2023/06/23 00:54:17;;;;;;;24.97;17.63;;;16.70;99.90;;;;;;5202390;28;20489;-45
2023/06/23 00:56:48;;;;;;;29.53;19.63;;;16.70;99.90;;;;;;5193780;28;20462;-44
2023/06/23 00:59:19;;;;;;;21.77;16.50;;;16.70;99.90;;;;;;5201232;28;20222;-45
2023/06/23 01:01:50;;;;;;;32.63;19.63;;;16.90;99.90;;;;;;5182404;28;20443;-44
2023/06/23 01:04:22;;;;;;;22.90;15.53;;;17.10;99.90;;;;;;5189715;28;20441;-44
2023/06/23 01:07:12;;;;;;;19.23;14.37;;;17.20;99.90;;;;;;5194725;28;20663;-46
2023/06/23 01:09:52;;;;;;;19.47;14.37;;;17.20;99.90;;;;;;5200952;28;20432;-44
2023/06/23 01:12:29;;;;;;;34.77;19.10;;;17.20;99.90;;;;;;5193283;28;20437;-45
2023/06/23 01:15:10;;;;;;;26.50;17.27;;;17.10;99.90;;;;;;5208790;28;20465;-45
2023/06/23 01:17:50;;;;;;;27.70;19.10;;;17.00;99.90;;;;;;5177255;28;20462;-46
2023/06/23 01:20:30;;;;;;;30.50;19.47;;;16.90;99.90;;;;;;5196436;28;20525;-46
2023/06/23 01:23:25;;;;;;;56.40;27.87;;;16.80;99.90;;;;;;5188070;28;20485;-46
2023/06/23 01:26:06;;;;;;;45.37;24.40;;;16.80;99.90;;;;;;5189449;28;20427;-48
2023/06/23 01:28:51;;;;;;;40.37;21.77;;;16.80;99.90;;;;;;5179078;28;20973;-47
2023/06/23 01:31:35;;;;;;;40.70;21.30;;;16.80;99.90;;;;;;5206445;28;20450;-46
2023/06/23 01:34:09;;;;;;;47.40;23.47;;;16.80;99.90;;;;;;5178100;28;20544;-46
2023/06/23 01:36:44;;;;;;;45.03;22.77;;;16.80;99.90;;;;;;5182836;28;20510;-46
2023/06/23 01:39:19;;;;;;;46.23;23.93;;;16.80;99.90;;;;;;5172992;28;20446;-47
2023/06/23 01:41:56;;;;;;;27.47;19.77;;;16.70;99.90;;;;;;5197104;28;20517;-46
2023/06/23 01:44:29;;;;;;;46.27;24.00;;;16.70;99.90;;;;;;5187303;28;20438;-47
2023/06/23 01:47:03;;;;;;;23.50;17.67;;;16.70;99.90;;;;;;5203733;28;20462;-46
2023/06/23 01:49:37;;;;;;;49.67;23.17;;;16.80;99.90;;;;;;5205716;28;21053;-46
2023/06/23 01:52:08;;;;;;;45.70;24.00;;;16.70;99.90;;;;;;5204355;28;20410;-46
2023/06/23 01:54:41;;;;;;;39.77;22.40;;;16.70;99.90;;;;;;5216894;28;20469;-45
2023/06/23 01:57:14;;;;;;;39.23;22.67;;;16.70;99.90;;;;;;5199343;28;20823;-45
2023/06/23 01:59:47;;;;;;;36.83;22.50;;;16.70;99.90;;;;;;5179509;28;20457;-46
2023/06/23 02:02:19;;;;;;;36.30;22.60;;;16.70;99.90;;;;;;5208650;28;20434;-44
2023/06/23 02:04:51;;;;;;;32.57;20.83;;;16.70;99.90;;;;;;5198690;28;20899;-45
2023/06/23 02:07:22;;;;;;;40.50;22.70;;;16.70;99.90;;;;;;5194192;28;20460;-45
2023/06/23 02:09:55;;;;;;;33.73;21.90;;;16.70;99.90;;;;;;5172171;28;20841;-44
2023/06/23 02:12:26;;;;;;;25.83;15.90;;;16.60;99.90;;;;;;5200310;28;20485;-45
2023/06/23 02:14:58;;;;;;;61.50;26.40;;;16.70;99.90;;;;;;5198827;28;20495;-45
2023/06/23 02:17:29;;;;;;;30.33;18.90;;;16.60;99.90;;;;;;5190812;28;20458;-45
2023/06/23 02:20:05;;;;;;;40.13;21.90;;;16.60;99.90;;;;;;5206581;28;20500;-46
2023/06/23 02:22:37;;;;;;;30.17;17.27;;;16.60;99.90;;;;;;5205610;28;20435;-45
2023/06/23 02:25:09;;;;;;;37.10;19.50;;;16.60;99.90;;;;;;5186143;28;20451;-45
2023/06/23 02:27:40;;;;;;;31.47;17.90;;;16.70;99.90;;;;;;5197101;28;20446;-45
2023/06/23 02:30:13;;;;;;;24.13;16.87;;;16.70;99.90;;;;;;5198079;28;20426;-44
2023/06/23 02:32:47;;;;;;;53.47;23.67;;;16.70;99.90;;;;;;5198822;28;20510;-45
2023/06/23 02:35:18;;;;;;;32.87;19.37;;;16.70;99.90;;;;;;5183219;28;20477;-45
2023/06/23 02:37:58;;;;;;;47.23;21.00;;;16.70;99.90;;;;;;5198294;28;20528;-44
2023/06/23 02:40:33;;;;;;;32.73;17.83;;;16.70;99.90;;;;;;5188573;28;20225;-45
2023/06/23 02:43:27;;;;;;;47.83;22.03;;;16.60;99.90;;;;;;5208400;28;20422;-44
2023/06/23 02:46:01;;;;;;;34.93;19.50;;;16.60;99.90;;;;;;5203384;28;20421;-45
2023/06/23 02:48:38;;;;;;;47.80;21.67;;;16.50;99.90;;;;;;5199024;28;20449;-45
2023/06/23 02:51:10;;;;;;;33.60;20.83;;;16.50;99.90;;;;;;5191354;28;20950;-44
2023/06/23 02:53:56;;;;;;;26.40;16.70;;;16.50;99.90;;;;;;5198405;28;20482;-45
2023/06/23 02:56:28;;;;;;;48.20;22.83;;;16.50;99.90;;;;;;5194050;28;20888;-45
2023/06/23 02:59:05;;;;;;;37.37;20.90;;;16.50;99.90;;;;;;5196010;28;20507;-45
2023/06/23 03:01:40;;;;;;;38.53;23.40;;;16.50;99.90;;;;;;5200613;28;21005;-44
2023/06/23 03:04:11;;;;;;;53.83;26.93;;;16.50;99.90;;;;;;5188192;28;20429;-44
2023/06/23 03:06:44;;;;;;;44.00;25.97;;;16.50;99.90;;;;;;5183125;28;21004;-45
2023/06/23 03:09:14;;;;;;;53.17;29.30;;;16.50;99.90;;;;;;5203095;28;20946;-44
2023/06/23 03:11:45;;;;;;;60.70;31.40;;;16.50;99.90;;;;;;5190674;28;20525;-45
2023/06/23 03:14:16;;;;;;;38.90;25.23;;;16.50;99.90;;;;;;5204463;28;20676;-45
2023/06/23 03:16:54;;;;;;;53.13;24.77;;;16.50;99.90;;;;;;5187204;28;20515;-43
2023/06/23 03:19:43;;;;;;;66.63;32.57;;;16.50;99.90;;;;;;5207986;28;20181;-44
2023/06/23 03:22:21;;;;;;;68.40;31.63;;;16.50;99.90;;;;;;5187164;28;20418;-44
2023/06/23 03:24:56;;;;;;;55.83;28.47;;;16.50;99.90;;;;;;5192993;28;20423;-45
2023/06/23 03:27:29;;;;;;;76.20;32.67;;;16.50;99.90;;;;;;5198173;28;20445;-44
2023/06/23 03:30:09;;;;;;;49.20;29.23;;;16.50;99.90;;;;;;5178680;28;20434;-44
2023/06/23 03:32:47;;;;;;;77.73;33.03;;;16.50;99.90;;;;;;5197460;28;20429;-44
2023/06/23 03:35:28;;;;;;;84.80;34.00;;;16.50;99.90;;;;;;5181271;28;20485;-44
2023/06/23 03:38:03;;;;;;;66.47;31.23;;;16.60;99.90;;;;;;5203526;28;20454;-44
2023/06/23 03:40:39;;;;;;;85.87;35.20;;;16.60;99.90;;;;;;5193172;28;20879;-44
2023/06/23 03:43:27;;;;;;;48.43;28.10;;;16.60;99.90;;;;;;5191163;28;20996;-44
2023/06/23 03:46:04;;;;;;;79.23;34.73;;;16.60;99.90;;;;;;5208966;28;20422;-45
2023/06/23 03:48:38;;;;;;;82.60;34.00;;;16.60;99.90;;;;;;5194208;28;20450;-45
2023/06/23 03:51:13;;;;;;;70.20;29.27;;;16.70;99.90;;;;;;5183416;28;20485;-45
2023/06/23 03:53:45;;;;;;;61.60;29.40;;;16.70;99.90;;;;;;5180259;28;20452;-45
2023/06/23 03:56:16;;;;;;;87.77;32.50;;;16.70;99.90;;;;;;5198664;28;20467;-46
2023/06/23 03:58:48;;;;;;;60.17;28.03;;;16.70;99.90;;;;;;5184829;28;20474;-44
2023/06/23 04:01:22;;;;;;;36.90;22.77;;;16.70;99.90;;;;;;5202239;28;20419;-45
2023/06/23 04:03:55;;;;;;;71.10;30.93;;;16.80;99.90;;;;;;5188226;28;20447;-45
2023/06/23 04:06:28;;;;;;;54.27;27.40;;;16.80;99.90;;;;;;5175354;28;20493;-44
2023/06/23 04:09:02;;;;;;;41.77;23.53;;;16.80;99.90;;;;;;5202644;28;20481;-45
2023/06/23 04:11:35;;;;;;;74.57;31.00;;;16.90;99.90;;;;;;5186084;28;20435;-44
2023/06/23 04:14:07;;;;;;;31.93;18.77;;;16.90;99.90;;;;;;5190850;28;20501;-44
2023/06/23 04:16:42;;;;;;;25.07;16.67;;;17.00;99.90;;;;;;5201418;28;20422;-44
2023/06/23 04:19:15;;;;;;;26.50;17.60;;;17.10;99.90;;;;;;5188635;28;20520;-44
2023/06/23 04:21:46;;;;;;;27.20;16.23;;;17.10;99.90;;;;;;5200494;28;20435;-45
2023/06/23 04:24:19;;;;;;;47.37;22.50;;;17.10;99.90;;;;;;5204215;28;20477;-46
2023/06/23 04:26:54;;;;;;;66.93;25.43;;;17.20;99.90;;;;;;5184402;28;20452;-45
2023/06/23 04:29:26;;;;;;;21.40;14.73;;;17.10;99.90;;;;;;5194824;28;20537;-45
2023/06/23 04:31:58;;;;;;;32.00;17.30;;;17.10;99.90;;;;;;5199329;28;20437;-45
2023/06/23 04:34:29;;;;;;;32.50;18.20;;;17.10;99.90;;;;;;5202761;28;20988;-46
2023/06/23 04:37:34;;;;;;;33.37;17.43;;;17.10;99.90;;;;;;5199455;28;20446;-45
2023/06/23 04:40:34;;;;;;;32.30;15.50;;;17.10;99.90;;;;;;5180789;28;20195;-45
2023/06/23 04:43:26;;;;;;;38.23;20.00;;;17.10;99.90;;;;;;5179624;28;20800;-44
2023/06/23 04:46:31;;;;;;;58.60;23.30;;;17.10;99.90;;;;;;5204924;28;20434;-43
2023/06/23 04:49:08;;;;;;;59.93;24.93;;;17.00;99.90;;;;;;5160527;28;20442;-46
2023/06/23 04:51:46;;;;;;;57.17;25.80;;;17.00;99.90;;;;;;5186507;28;20436;-46
2023/06/23 04:54:39;;;;;;;57.97;26.20;;;17.00;99.90;;;;;;5189883;28;21072;-45
2023/06/23 04:57:15;;;;;;;57.60;26.07;;;17.00;99.90;;;;;;5205242;28;20525;-45
2023/06/23 04:59:52;;;;;;;67.00;27.27;;;17.00;99.90;;;;;;5206169;28;20439;-44
2023/06/23 05:02:25;;;;;;;35.80;20.20;;;17.00;99.90;;;;;;5204814;28;21022;-45
2023/06/23 05:04:57;;;;;;;71.87;27.90;;;17.00;99.90;;;;;;5174107;28;20858;-44
2023/06/23 05:07:29;;;;;;;25.90;15.93;;;16.90;99.90;;;;;;5205928;28;20430;-46
2023/06/23 05:10:02;;;;;;;62.03;27.27;;;17.00;99.90;;;;;;5192162;28;20946;-45
2023/06/23 05:12:34;;;;;;;34.33;20.90;;;17.00;99.90;;;;;;5199137;28;20430;-45
2023/06/23 05:15:07;;;;;;;63.40;27.33;;;16.90;99.90;;;;;;5209669;28;20462;-45
2023/06/23 05:17:39;;;;;;;38.13;21.90;;;16.90;99.90;;;;;;5206494;28;20548;-45
2023/06/23 05:20:11;;;;;;;86.23;29.60;;;16.90;99.90;;;;;;5188718;28;21014;-45
2023/06/23 05:22:45;;;;;;;65.67;28.87;;;16.90;99.90;;;;;;5203844;28;20411;-43
2023/06/23 05:25:18;;;;;;;50.67;26.20;;;16.90;99.90;;;;;;5200713;28;20423;-45
2023/06/23 05:27:57;;;;;;;55.67;25.63;;;16.90;99.90;;;;;;5203264;28;20497;-45
2023/06/23 05:30:29;;;;;;;64.77;29.63;;;16.90;99.90;;;;;;5197770;28;20434;-44
2023/06/23 05:33:01;;;;;;;61.30;27.50;;;17.00;99.90;;;;;;5191719;28;20446;-44
2023/06/23 05:35:33;;;;;;;60.23;26.40;;;16.90;99.90;;;;;;5188447;28;20542;-45
2023/06/23 05:38:06;;;;;;;98.37;35.33;;;16.90;99.90;;;;;;5205616;28;20473;-44
2023/06/23 05:40:36;;;;;;;32.00;20.00;;;16.90;99.90;;;;;;5207488;28;20442;-45
2023/06/23 05:43:07;;;;;;;80.40;32.07;;;16.90;99.90;;;;;;5187968;28;20963;-44
2023/06/23 05:45:41;;;;;;;53.73;27.23;;;16.90;99.90;;;;;;5191644;28;20191;-44
2023/06/23 05:48:19;;;;;;;47.90;27.53;;;16.90;99.90;;;;;;5199429;28;20254;-44
2023/06/23 05:50:50;;;;;;;36.63;22.40;;;16.90;99.90;;;;;;5208105;28;20430;-45
2023/06/23 05:53:25;;;;;;;46.90;26.50;;;17.00;99.90;;;;;;5206463;28;20577;-45
2023/06/23 05:56:13;;;;;;;76.20;31.80;;;16.90;99.90;;;;;;5203238;28;20429;-44
2023/06/23 05:58:46;;;;;;;62.33;29.30;;;16.90;99.90;;;;;;5207210;28;20441;-45
2023/06/23 06:01:21;;;;;;;68.27;32.47;;;16.90;99.90;;;;;;5201082;28;20438;-45
2023/06/23 06:04:09;;;;;;;86.97;35.70;;;16.90;99.90;;;;;;5191584;28;20480;-45
2023/06/23 06:06:41;;;;;;;75.37;34.13;;;17.00;99.90;;;;;;5182022;28;20438;-44
2023/06/23 06:09:15;;;;;;;71.57;32.60;;;17.00;99.90;;;;;;5207735;28;20480;-44
2023/06/23 06:11:50;;;;;;;61.93;30.63;;;17.00;99.90;;;;;;5205014;28;20467;-49
2023/06/23 06:14:23;;;;;;;59.53;30.40;;;17.00;99.90;;;;;;5166119;28;20971;-44
2023/06/23 06:16:55;;;;;;;65.20;31.67;;;17.00;99.90;;;;;;5206902;28;20435;-45
2023/06/23 06:19:28;;;;;;;71.90;32.17;;;17.00;99.90;;;;;;5185789;28;20457;-44
2023/06/23 06:22:00;;;;;;;68.03;31.97;;;17.00;99.90;;;;;;5181897;28;20441;-45
2023/06/23 06:24:33;;;;;;;50.10;25.67;;;17.00;99.90;;;;;;5201301;28;21053;-44
2023/06/23 06:27:07;;;;;;;57.23;31.00;;;17.00;99.90;;;;;;5192354;28;20493;-44
2023/06/23 06:29:40;;;;;;;68.03;33.23;;;17.00;99.90;;;;;;5184203;28;20525;-44
2023/06/23 06:32:14;;;;;;;79.07;34.50;;;17.00;99.90;;;;;;5209667;28;20414;-45
2023/06/23 06:34:47;;;;;;;72.03;32.40;;;17.10;99.90;;;;;;5188565;28;20446;-45
2023/06/23 06:37:19;;;;;;;70.00;31.77;;;17.10;99.90;;;;;;5207272;28;20488;-45
2023/06/23 06:39:51;;;;;;;52.27;29.40;;;17.20;99.90;;;;;;5167473;28;20759;-45
2023/06/23 06:42:22;;;;;;;58.67;28.43;;;17.20;99.90;;;;;;5198375;28;20431;-45
2023/06/23 06:44:53;;;;;;;37.53;22.97;;;17.20;99.90;;;;;;5205529;28;20512;-45
2023/06/23 06:47:26;;;;;;;53.70;30.60;;;17.30;99.90;;;;;;5182092;28;20242;-45
2023/06/23 06:49:59;;;;;;;32.60;21.40;;;17.40;99.90;;;;;;5191080;28;20657;-44
2023/06/23 06:52:31;;;;;;;53.63;27.53;;;17.50;99.90;;;;;;5205294;28;20423;-44
2023/06/23 06:55:03;;;;;;;38.00;24.50;;;17.60;99.90;;;;;;5197486;28;20469;-44
2023/06/23 06:57:35;;;;;;;40.70;24.23;;;17.60;99.90;;;;;;5203044;28;20451;-44
2023/06/23 07:00:09;;;;;;;38.13;24.03;;;17.50;99.90;;;;;;5188263;28;20439;-44
2023/06/23 07:02:40;;;;;;;44.13;28.70;;;17.40;99.90;;;;;;5174465;28;20518;-44
2023/06/23 07:05:12;;;;;;;57.10;31.67;;;17.30;99.90;;;;;;5165700;28;20763;-44
2023/06/23 07:07:44;;;;;;;55.33;26.83;;;17.40;99.90;;;;;;5206070;28;20434;-45
2023/06/23 07:10:15;;;;;;;61.33;31.57;;;17.40;99.90;;;;;;5203412;28;20434;-43
2023/06/23 07:12:46;;;;;;;59.80;30.93;;;17.50;99.90;;;;;;5200581;28;20854;-44
2023/06/23 07:15:17;;;;;;;46.57;27.47;;;17.50;99.90;;;;;;5199413;28;20219;-45
2023/06/23 07:17:47;;;;;;;78.90;33.20;;;17.50;99.90;;;;;;5185627;28;20255;-44
2023/06/23 07:20:19;;;;;;;60.00;33.60;;;17.60;99.90;;;;;;5198928;28;20406;-44
2023/06/23 07:22:50;;;;;;;47.07;25.67;;;17.80;99.90;;;;;;5202009;28;20184;-46
2023/06/23 07:25:20;;;;;;;57.57;29.17;;;17.80;99.90;;;;;;5170147;28;20430;-45
2023/06/23 07:27:51;;;;;;;48.87;24.27;;;17.80;99.90;;;;;;5184521;28;20688;-46
2023/06/23 07:30:22;;;;;;;45.63;24.93;;;17.90;99.90;;;;;;5197328;28;20199;-46
2023/06/23 07:32:53;;;;;;;69.37;26.90;;;17.80;99.90;;;;;;5182723;28;20179;-45
2023/06/23 07:35:24;;;;;;;31.87;21.17;;;17.80;99.90;;;;;;5183726;28;20208;-44
2023/06/23 07:37:55;;;;;;;37.23;21.93;;;17.80;99.90;;;;;;5190708;28;20508;-44
2023/06/23 07:40:26;;;;;;;57.63;27.00;;;17.70;99.90;;;;;;5204778;28;20204;-44
2023/06/23 07:42:56;;;;;;;37.23;22.07;;;17.70;99.90;;;;;;5185816;28;20180;-45
2023/06/23 07:45:27;;;;;;;54.03;26.10;;;17.70;99.90;;;;;;5193657;28;20426;-44
2023/06/23 07:47:58;;;;;;;28.30;19.07;;;17.60;99.90;;;;;;5197821;28;20730;-44
2023/06/23 07:50:29;;;;;;;30.10;19.90;;;17.70;99.90;;;;;;5195313;28;20271;-44
2023/06/23 07:52:59;;;;;;;36.90;22.77;;;17.70;99.90;;;;;;5190762;28;20177;-44
2023/06/23 07:55:30;;;;;;;34.73;21.83;;;17.70;99.90;;;;;;5202835;28;20677;-44
2023/06/23 07:58:01;;;;;;;35.30;20.80;;;17.60;99.90;;;;;;5175577;28;20199;-45
2023/06/23 08:00:32;;;;;;;39.77;22.93;;;17.60;99.90;;;;;;5182886;28;20198;-45
2023/06/23 08:03:03;;;;;;;41.87;24.47;;;17.60;99.90;;;;;;5177586;28;20474;-45
2023/06/23 08:05:34;;;;;;;31.07;21.47;;;17.60;99.90;;;;;;5180641;28;20191;-44
2023/06/23 08:08:05;;;;;;;38.30;21.97;;;17.50;99.90;;;;;;5201405;28;20446;-43
2023/06/23 08:10:36;;;;;;;25.90;20.53;;;17.50;99.90;;;;;;5190020;28;20191;-43
2023/06/23 08:13:07;;;;;;;56.63;28.30;;;17.50;99.90;;;;;;5169480;28;20466;-44
2023/06/23 08:15:37;;;;;;;38.20;23.90;;;17.40;99.90;;;;;;5203573;28;20175;-44
2023/06/23 08:18:08;;;;;;;38.17;24.23;;;17.50;99.90;;;;;;5196870;28;20238;-43
2023/06/23 08:20:39;;;;;;;52.67;26.40;;;17.40;99.90;;;;;;5203110;28;20187;-45
2023/06/23 08:23:10;;;;;;;41.33;23.43;;;17.50;99.90;;;;;;5194020;28;20208;-44
2023/06/23 08:25:40;;;;;;;50.60;26.30;;;17.40;99.90;;;;;;5189961;28;20263;-45
2023/06/23 08:28:11;;;;;;;56.03;29.63;;;17.50;99.90;;;;;;5182408;28;20204;-44
2023/06/23 08:30:42;;;;;;;49.27;29.20;;;17.40;99.90;;;;;;5180865;28;20176;-45
2023/06/23 08:33:12;;;;;;;32.80;23.50;;;17.40;99.90;;;;;;5199705;28;20191;-44
2023/06/23 08:35:44;;;;;;;44.83;26.63;;;17.40;99.90;;;;;;5201141;28;20222;-45
2023/06/23 08:38:16;;;;;;;45.20;27.20;;;17.40;99.90;;;;;;5203259;28;20203;-45
2023/06/23 08:40:47;;;;;;;46.37;29.20;;;17.40;99.90;;;;;;5179157;28;21022;-46
2023/06/23 08:43:25;;;;;;;45.23;30.57;;;17.40;99.90;;;;;;5186421;28;20505;-45
2023/06/23 08:45:59;;;;;;;34.67;25.80;;;17.50;99.90;;;;;;5194815;28;20811;-44
2023/06/23 08:48:31;;;;;;;48.03;29.67;;;17.60;99.90;;;;;;5205895;28;20861;-44
2023/06/23 08:51:03;;;;;;;43.53;29.70;;;17.60;99.90;;;;;;5187426;28;20442;-44
2023/06/23 08:53:34;;;;;;;58.73;32.10;;;17.70;99.90;;;;;;5200254;28;20469;-45
2023/06/23 08:56:06;;;;;;;73.50;39.40;;;17.60;99.90;;;;;;5208854;28;20411;-45
2023/06/23 08:58:37;;;;;;;65.23;37.20;;;17.60;99.90;;;;;;5169460;28;20804;-51
2023/06/23 09:01:08;;;;;;;67.17;37.20;;;17.50;99.90;;;;;;5175981;28;20430;-44
2023/06/23 09:03:38;;;;;;;84.57;42.10;;;17.50;99.90;;;;;;5189841;28;20550;-44
2023/06/23 09:06:10;;;;;;;58.53;36.90;;;17.40;99.90;;;;;;5190517;28;20234;-44
2023/06/23 09:08:41;;;;;;;95.80;45.43;;;17.40;99.90;;;;;;5186884;28;20287;-44
2023/06/23 09:11:12;;;;;;;76.73;41.13;;;17.50;99.90;;;;;;5205677;28;20482;-44
2023/06/23 09:13:45;;;;;;;79.03;41.40;;;17.40;99.90;;;;;;5199716;28;20560;-44
2023/06/23 09:16:16;;;;;;;65.50;39.10;;;17.40;99.90;;;;;;5197366;28;20881;-45
2023/06/23 09:18:48;;;;;;;86.70;44.60;;;17.40;99.90;;;;;;5192496;28;20983;-44
2023/06/23 09:21:20;;;;;;;86.33;44.87;;;17.30;99.90;;;;;;5196493;28;20422;-44
2023/06/23 09:24:01;;;;;;;70.57;38.60;;;17.30;99.90;;;;;;5208420;28;20507;-44
2023/06/23 09:26:55;;;;;;;53.17;34.30;;;17.30;99.90;;;;;;5201946;28;20425;-43
2023/06/23 09:29:26;;;;;;;54.20;36.00;;;17.30;99.90;;;;;;5209936;28;20418;-45
2023/06/23 09:31:59;;;;;;;83.63;43.70;;;17.30;99.90;;;;;;5203634;28;20420;-46
2023/06/23 09:34:37;;;;;;;107.93;49.20;;;17.30;99.90;;;;;;5191788;28;20207;-45
2023/06/23 09:37:13;;;;;;;112.73;52.43;;;17.40;99.90;;;;;;5198280;28;20474;-44
2023/06/23 09:39:48;;;;;;;75.90;44.47;;;17.40;99.90;;;;;;5192374;28;20442;-45
2023/06/23 09:42:19;;;;;;;91.53;50.67;;;17.40;99.90;;;;;;5191690;28;20472;-46
2023/06/23 09:44:50;;;;;;;120.73;56.63;;;17.40;99.90;;;;;;5185734;28;20446;-44
2023/06/23 09:47:22;;;;;;;144.87;60.37;;;17.40;99.90;;;;;;5191485;28;20809;-45
2023/06/23 09:49:53;;;;;;;118.90;54.93;;;17.50;99.90;;;;;;5192098;28;20179;-45
2023/06/23 09:52:26;;;;;;;114.53;57.10;;;17.50;99.90;;;;;;5200433;28;20449;-46
2023/06/23 09:54:57;;;;;;;82.07;48.00;;;17.40;99.90;;;;;;5192829;28;20235;-45
2023/06/23 09:57:29;;;;;;;142.07;60.30;;;17.40;99.90;;;;;;5207618;28;20454;-44
2023/06/23 10:00:01;;;;;;;91.90;51.53;;;17.30;99.90;;;;;;5179342;28;20184;-44
2023/06/23 10:02:32;;;;;;;111.17;56.03;;;17.30;99.90;;;;;;5191662;28;20437;-45
2023/06/23 10:05:05;;;;;;;149.27;61.93;;;17.30;99.90;;;;;;5199461;28;20418;-45
2023/06/23 10:07:36;;;;;;;96.63;52.17;;;17.30;99.90;;;;;;5192021;28;20218;-45
2023/06/23 10:10:10;;;;;;;120.77;59.67;;;17.40;99.90;;;;;;5198469;28;20443;-44
2023/06/23 10:12:41;;;;;;;129.87;59.03;;;17.30;99.90;;;;;;5187718;28;20214;-46
2023/06/23 10:15:13;;;;;;;121.87;56.57;;;17.30;99.90;;;;;;5206198;28;20818;-45
2023/06/23 10:17:44;;;;;;;149.13;62.83;;;17.40;99.90;;;;;;5208722;28;20510;-46
2023/06/23 10:20:17;;;;;;;140.70;58.00;;;17.30;99.90;;;;;;5185825;28;20458;-45
2023/06/23 10:22:49;;;;;;;88.33;51.30;;;17.40;99.90;;;;;;5203785;28;20792;-44
2023/06/23 10:25:20;;;;;;;131.93;60.13;;;17.30;99.90;;;;;;5183678;28;20501;-45
2023/06/23 10:27:55;;;;;;;108.93;56.63;;;17.40;99.90;;;;;;5201027;28;20519;-45
2023/06/23 10:30:28;;;;;;;67.83;42.73;;;17.50;99.90;;;;;;5194163;28;20442;-46
2023/06/23 10:32:59;;;;;;;95.47;49.67;;;17.50;99.90;;;;;;5201038;28;20442;-45
2023/06/23 10:35:31;;;;;;;88.80;45.63;;;17.60;99.90;;;;;;5204450;28;20461;-45
2023/06/23 10:38:03;;;;;;;83.50;45.23;;;17.70;99.90;;;;;;5204960;28;20990;-46
2023/06/23 10:40:39;;;;;;;108.60;47.20;;;17.70;99.90;;;;;;5202719;28;20910;-46
2023/06/23 10:43:11;;;;;;;64.07;36.93;;;17.80;99.90;;;;;;5200569;28;20426;-45
2023/06/23 10:45:42;;;;;;;78.03;39.57;;;17.80;99.90;;;;;;5200862;28;20442;-46
2023/06/23 10:48:14;;;;;;;63.47;36.47;;;17.80;99.90;;;;;;5180323;28;20482;-44
2023/06/23 10:50:46;;;;;;;64.87;35.77;;;17.90;99.90;;;;;;5160524;28;20962;-46
2023/06/23 10:53:20;;;;;;;49.67;29.43;;;17.80;99.90;;;;;;5187152;28;20420;-45
2023/06/23 10:55:57;;;;;;;41.20;28.27;;;17.80;99.90;;;;;;5202684;28;20449;-44
2023/06/23 10:58:29;;;;;;;33.77;22.63;;;17.70;99.90;;;;;;5196928;28;20474;-45
2023/06/23 11:01:00;;;;;;;60.93;31.37;;;17.60;99.90;;;;;;5188178;28;20518;-44
2023/06/23 11:03:36;;;;;;;74.17;35.40;;;17.40;99.90;;;;;;5180552;28;21027;-44
2023/06/23 11:06:08;;;;;;;52.20;30.10;;;17.50;99.90;;;;;;5204805;28;20182;-45
2023/06/23 11:08:44;;;;;;;57.57;33.27;;;17.40;99.90;;;;;;5196916;28;20958;-44
2023/06/23 11:11:15;;;;;;;48.33;30.43;;;17.40;99.90;;;;;;5190489;28;20444;-44
2023/06/23 11:13:50;;;;;;;46.93;28.43;;;17.50;99.90;;;;;;5202780;28;20584;-46
2023/06/23 11:16:39;;;;;;;44.67;26.47;;;17.40;99.90;;;;;;5183323;28;20512;-46
2023/06/23 11:19:10;;;;;;;55.23;31.43;;;17.50;99.90;;;;;;5206036;28;20430;-45
2023/06/23 11:21:41;;;;;;;61.90;31.00;;;17.50;99.90;;;;;;5205861;28;20426;-45
2023/06/23 11:24:19;;;;;;;51.07;28.50;;;17.50;99.90;;;;;;5200089;28;20179;-45
2023/06/23 11:27:00;;;;;;;63.80;31.80;;;17.50;99.90;;;;;;5196510;28;20190;-45
2023/06/23 11:29:31;;;;;;;68.83;32.40;;;17.50;99.90;;;;;;5190243;28;20435;-46
2023/06/23 11:32:14;;;;;;;41.40;26.70;;;17.50;99.90;;;;;;5202630;28;20488;-46
2023/06/23 11:35:00;;;;;;;57.17;30.60;;;17.50;99.90;;;;;;5185693;28;20454;-45
2023/06/23 11:37:33;;;;;;;35.90;25.53;;;17.60;99.90;;;;;;5188936;28;20497;-45
2023/06/23 11:40:05;;;;;;;37.47;24.67;;;17.60;99.90;;;;;;5186329;28;20995;-46
2023/06/23 11:42:44;;;;;;;54.33;28.83;;;17.50;99.90;;;;;;5203040;28;20433;-46
2023/06/23 11:45:15;;;;;;;62.13;32.43;;;17.50;99.90;;;;;;5186765;28;20951;-45
2023/06/23 11:47:50;;;;;;;62.13;32.50;;;17.50;99.90;;;;;;5189789;28;20512;-46
2023/06/23 11:50:20;;;;;;;46.27;28.40;;;17.60;99.90;;;;;;5205788;28;20385;-45
2023/06/23 11:52:52;;;;;;;75.93;33.93;;;17.60;99.90;;;;;;5186765;28;20845;-50
2023/06/23 11:55:22;;;;;;;51.50;30.43;;;17.60;99.90;;;;;;5189127;28;20276;-46
2023/06/23 11:57:53;;;;;;;55.17;31.50;;;17.50;99.90;;;;;;5175785;28;20483;-46
2023/06/23 12:00:24;;;;;;;54.90;32.70;;;17.50;99.90;;;;;;5185147;28;20183;-47
2023/06/23 12:02:55;;;;;;;52.90;32.07;;;17.50;99.90;;;;;;5182031;28;20243;-47
2023/06/23 12:05:27;;;;;;;37.20;28.73;;;17.50;99.90;;;;;;5205020;28;20215;-50
2023/06/23 12:07:58;;;;;;;53.00;32.30;;;17.60;99.90;;;;;;5202682;28;20222;-45
2023/06/23 12:10:30;;;;;;;61.87;34.60;;;17.60;99.90;;;;;;5182110;28;20462;-47
2023/06/23 12:13:01;;;;;;;63.60;35.43;;;17.50;99.90;;;;;;5206982;28;20473;-48
2023/06/23 12:15:42;;;;;;;64.30;32.00;;;17.50;99.90;;;;;;5182863;28;20490;-46
2023/06/23 12:18:13;;;;;;;28.33;20.77;;;17.50;99.90;;;;;;5205801;28;20203;-47
2023/06/23 12:20:47;;;;;;;29.13;20.00;;;17.60;99.90;;;;;;5199917;28;20855;-45
2023/06/23 12:23:18;;;;;;;54.13;23.77;;;17.60;99.90;;;;;;5186168;28;20265;-44
2023/06/23 12:25:52;;;;;;;37.67;19.53;;;17.70;99.90;;;;;;5187681;28;20530;-46
2023/06/23 12:28:26;;;;;;;37.47;18.37;;;17.50;99.90;;;;;;5177309;28;20285;-46
2023/06/23 12:30:57;;;;;;;29.23;16.73;;;17.30;99.90;;;;;;5184818;28;20434;-45
2023/06/23 12:33:30;;;;;;;41.60;19.73;;;17.30;99.90;;;;;;5202713;28;20434;-45
2023/06/23 12:36:15;;;;;;;23.30;13.40;;;17.20;99.90;;;;;;5200026;28;20270;-46
2023/06/23 12:38:53;;;;;;;41.07;18.03;;;17.00;99.90;;;;;;5194465;28;20521;-47
2023/06/23 12:41:28;;;;;;;49.30;17.47;;;16.80;99.90;;;;;;5191580;28;20427;-46
2023/06/23 12:44:00;;;;;;;31.33;15.77;;;16.80;99.90;;;;;;5201317;28;20441;-44
2023/06/23 12:46:31;;;;;;;39.80;17.17;;;16.80;99.90;;;;;;5199386;28;20438;-47
2023/06/23 12:49:03;;;;;;;19.67;13.17;;;16.80;99.90;;;;;;5198793;28;20469;-47
2023/06/23 12:51:35;;;;;;;29.03;14.23;;;16.70;99.90;;;;;;5199620;28;20423;-47
2023/06/23 12:54:06;;;;;;;28.33;14.43;;;16.60;99.90;;;;;;5188012;28;20468;-46
2023/06/23 12:56:37;;;;;;;22.27;13.73;;;16.60;99.90;;;;;;5191269;28;20445;-45
2023/06/23 12:59:07;;;;;;;22.90;12.67;;;16.60;99.90;;;;;;5197112;28;20207;-44